createdAt,value
2023-05-11T00:02:18.329Z,100945.00
2023-05-11T00:04:47.968Z,100953.91
2023-05-11T00:07:16.096Z,100942.31
2023-05-11T00:09:44.558Z,100947.69
2023-05-11T00:12:14.477Z,100951.34
2023-05-11T00:14:42.621Z,100957.56
2023-05-11T00:17:11.821Z,100934.09
2023-05-11T00:19:39.987Z,100943.31
2023-05-11T00:22:09.491Z,100948.66
2023-05-11T00:24:37.722Z,100941.16
2023-05-11T00:27:06.254Z,100945.13
2023-05-11T00:29:34.426Z,100949.66
2023-05-11T00:32:02.557Z,100956.00
2023-05-11T00:34:30.666Z,100949.66
2023-05-11T00:36:58.790Z,100956.72
2023-05-11T00:39:28.460Z,100955.00
2023-05-11T00:41:56.699Z,100945.97
2023-05-11T00:44:24.846Z,100950.47
2023-05-11T00:46:53.099Z,100956.72
2023-05-11T00:49:22.876Z,100960.38
2023-05-11T00:51:51.947Z,100965.72
2023-05-11T00:54:20.119Z,100878.81
2023-05-11T00:56:50.350Z,100930.03
2023-05-11T00:59:18.768Z,100960.38
2023-05-11T01:01:49.254Z,100955.00
2023-05-11T01:04:17.407Z,100961.19
2023-05-11T01:06:52.949Z,100902.34
2023-05-11T01:09:31.004Z,100949.91
2023-05-11T01:12:11.501Z,100956.72
2023-05-11T01:14:46.861Z,100950.66
2023-05-11T01:17:23.354Z,100951.34
2023-05-11T01:19:58.766Z,100949.66
2023-05-11T01:22:52.331Z,100950.47
2023-05-11T01:25:44.396Z,100955.00
2023-05-11T01:28:32.400Z,100825.63
2023-05-11T01:31:08.298Z,100953.31
2023-05-11T01:33:38.748Z,100959.50
2023-05-11T01:36:11.216Z,100956.00
2023-05-11T01:38:43.157Z,100961.38
2023-05-11T01:41:15.940Z,100956.00
2023-05-11T01:43:47.154Z,100960.50
2023-05-11T01:46:18.385Z,100958.69
2023-05-11T01:48:52.681Z,100952.47
2023-05-11T01:51:21.953Z,100883.91
2023-05-11T01:53:51.987Z,100958.69
2023-05-11T01:56:22.826Z,100964.03
2023-05-11T01:58:54.248Z,100940.25
2023-05-11T02:01:26.509Z,100959.66
2023-05-11T02:03:55.651Z,100975.72
2023-05-11T02:06:27.873Z,100958.69
2023-05-11T02:08:57.646Z,100964.03
2023-05-11T02:11:27.916Z,100904.53
2023-05-11T02:13:59.579Z,100973.78
2023-05-11T02:16:30.732Z,100965.72
2023-05-11T02:19:00.402Z,100975.59
2023-05-11T02:21:29.689Z,100827.63
2023-05-11T02:23:59.009Z,100972.78
2023-05-11T02:26:27.624Z,100971.09
2023-05-11T02:28:55.914Z,100981.81
2023-05-11T02:31:29.626Z,100988.00
2023-05-11T02:34:06.517Z,100827.63
2023-05-11T02:36:37.043Z,100972.09
2023-05-11T02:39:10.878Z,100976.44
2023-05-11T02:41:43.418Z,100972.78
2023-05-11T02:44:17.421Z,100979.13
2023-05-11T02:46:50.038Z,100825.94
2023-05-11T02:49:22.384Z,100987.16
2023-05-11T02:51:51.869Z,100983.75
2023-05-11T02:54:20.886Z,100882.06
2023-05-11T02:56:49.392Z,100985.47
2023-05-11T02:59:18.879Z,100992.53
2023-05-11T03:01:49.482Z,100997.88
2023-05-11T03:04:17.862Z,100999.56
2023-05-11T03:06:46.223Z,100972.13
2023-05-11T03:09:14.478Z,100923.00
2023-05-11T03:11:43.802Z,100827.88
2023-05-11T03:14:12.169Z,101001.38
2023-05-11T03:16:42.279Z,100997.88
2023-05-11T03:19:12.275Z,100998.72
2023-05-11T03:21:41.174Z,100851.94
2023-05-11T03:24:10.348Z,101004.94
2023-05-11T03:26:39.437Z,101013.97
2023-05-11T03:29:11.787Z,101019.31
2023-05-11T03:31:40.489Z,101014.78
2023-05-11T03:34:08.636Z,100935.50
2023-05-11T03:36:39.916Z,101013.97
2023-05-11T03:39:11.565Z,101015.66
2023-05-11T03:41:41.748Z,101031.72
2023-05-11T03:44:13.930Z,101008.00
2023-05-11T03:46:46.000Z,101026.38
2023-05-11T03:49:14.378Z,101014.78
2023-05-11T03:51:45.578Z,101002.06
2023-05-11T03:54:14.312Z,101008.25
2023-05-11T03:56:43.658Z,100999.16
2023-05-11T03:59:17.694Z,101021.00
2023-05-11T04:01:46.196Z,101026.38
2023-05-11T04:04:14.392Z,101018.81
2023-05-11T04:06:44.204Z,101025.84
2023-05-11T04:09:12.801Z,100993.28
2023-05-11T04:11:40.989Z,101027.53
2023-05-11T04:14:09.153Z,101006.69
2023-05-11T04:16:37.317Z,101020.03
2023-05-11T04:19:06.394Z,101041.94
2023-05-11T04:21:34.559Z,100995.88
2023-05-11T04:24:06.367Z,101033.88
2023-05-11T04:26:34.756Z,101039.25
2023-05-11T04:29:03.047Z,101042.91
2023-05-11T04:31:31.262Z,101048.28
2023-05-11T04:34:00.215Z,101050.97
2023-05-11T04:36:28.432Z,101050.09
2023-05-11T04:38:56.726Z,101042.19
2023-05-11T04:41:26.353Z,101042.00
2023-05-11T04:43:54.420Z,101054.84
2023-05-11T04:46:23.592Z,101052.91
2023-05-11T04:48:52.153Z,101070.66
2023-05-11T04:51:20.349Z,101058.25
2023-05-11T04:53:48.482Z,101066.31
2023-05-11T04:56:16.614Z,101063.88
2023-05-11T04:58:46.150Z,101072.66
2023-05-11T05:01:14.331Z,101067.28
2023-05-11T05:03:42.594Z,101061.94
2023-05-11T05:06:10.940Z,101074.34
2023-05-11T05:08:39.646Z,101067.28
2023-05-11T05:11:08.017Z,101078.00
2023-05-11T05:13:36.175Z,101076.28
2023-05-11T05:16:06.146Z,101065.13
2023-05-11T05:18:34.248Z,101094.09
2023-05-11T05:21:03.952Z,100923.44
2023-05-11T05:23:32.501Z,101085.06
2023-05-11T05:26:01.561Z,101089.56
2023-05-11T05:28:29.704Z,101087.88
2023-05-11T05:31:00.162Z,101041.59
2023-05-11T05:33:29.863Z,101096.75
2023-05-11T05:35:58.326Z,101103.94
2023-05-11T05:38:26.488Z,101063.69
2023-05-11T05:40:54.693Z,101100.41
2023-05-11T05:43:22.825Z,101108.44
2023-05-11T05:45:51.127Z,101097.16
2023-05-11T05:48:19.256Z,100963.81
2023-05-11T05:50:49.315Z,101108.44
2023-05-11T05:53:17.496Z,101112.09
2023-05-11T05:55:45.625Z,101039.69
2023-05-11T05:58:13.948Z,101031.44
2023-05-11T06:00:42.203Z,101023.88
2023-05-11T06:03:10.447Z,101125.50
2023-05-11T06:05:38.668Z,101117.00
2023-05-11T06:08:11.400Z,101124.50
2023-05-11T06:10:39.879Z,101061.78
2023-05-11T06:13:09.463Z,101126.25
2023-05-11T06:15:37.808Z,101082.22
2023-05-11T06:18:06.536Z,101132.56
2023-05-11T06:20:34.763Z,101130.84
2023-05-11T06:23:03.027Z,101154.72
2023-05-11T06:25:35.274Z,101138.66
2023-05-11T06:28:03.499Z,101139.50
2023-05-11T06:30:31.650Z,101141.31
2023-05-11T06:32:59.935Z,101138.66
2023-05-11T06:35:28.200Z,101130.97
2023-05-11T06:37:56.387Z,101148.50
2023-05-11T06:40:25.346Z,101151.19
2023-05-11T06:42:54.911Z,101141.31
2023-05-11T06:45:23.453Z,101136.94
2023-05-11T06:47:51.611Z,101144.00
2023-05-11T06:50:21.299Z,101138.66
2023-05-11T06:52:49.984Z,101134.53
2023-05-11T06:55:18.280Z,101147.66
2023-05-11T06:57:49.084Z,101158.38
2023-05-11T07:00:19.955Z,101148.50
2023-05-11T07:02:48.988Z,101062.81
2023-05-11T07:05:17.552Z,101146.47
2023-05-11T07:07:45.740Z,101155.72
2023-05-11T07:10:13.896Z,101168.25
2023-05-11T07:12:42.130Z,101170.94
2023-05-11T07:15:11.168Z,101167.38
2023-05-11T07:17:40.702Z,101182.50
2023-05-11T07:20:10.016Z,101091.78
2023-05-11T07:22:38.298Z,101174.47
2023-05-11T07:25:08.920Z,101163.25
2023-05-11T07:27:37.183Z,101180.66
2023-05-11T07:30:05.987Z,101154.88
2023-05-11T07:32:34.233Z,101047.47
2023-05-11T07:35:03.885Z,101174.47
2023-05-11T07:37:32.094Z,101113.66
2023-05-11T07:40:00.293Z,101177.16
2023-05-11T07:42:28.742Z,101119.00
2023-05-11T07:44:56.851Z,101180.78
2023-05-11T07:47:25.349Z,101190.78
2023-05-11T07:49:53.659Z,101119.00
2023-05-11T07:52:23.600Z,101194.19
2023-05-11T07:54:51.929Z,101191.50
2023-05-11T07:57:20.742Z,101201.25
2023-05-11T07:59:48.870Z,101034.34
2023-05-11T08:02:17.073Z,101194.19
2023-05-11T08:04:45.264Z,101197.84
2023-05-11T08:07:13.974Z,101175.72
2023-05-11T08:09:44.765Z,101188.81
2023-05-11T08:12:13.518Z,101195.91
2023-05-11T08:14:43.245Z,101195.91
2023-05-11T08:17:11.679Z,101203.09
2023-05-11T08:19:39.845Z,101199.53
2023-05-11T08:22:08.030Z,101188.13
2023-05-11T08:24:36.513Z,101204.69
2023-05-11T08:27:06.248Z,101210.25
2023-05-11T08:29:34.426Z,101211.25
2023-05-11T08:32:02.593Z,101220.97
2023-05-11T08:34:33.427Z,101229.00
2023-05-11T08:37:02.099Z,101226.34
2023-05-11T08:39:46.015Z,101219.03
2023-05-11T08:42:18.074Z,101224.38
2023-05-11T08:44:49.632Z,101206.88
2023-05-11T08:47:23.417Z,101169.88
2023-05-11T08:49:52.956Z,101197.13
2023-05-11T08:52:21.710Z,101197.75
2023-05-11T08:54:50.488Z,101137.53
2023-05-11T08:57:20.850Z,101211.00
2023-05-11T08:59:51.581Z,101224.38
2023-05-11T09:02:21.685Z,101228.06
2023-05-11T09:04:52.105Z,101228.06
2023-05-11T09:07:21.717Z,101227.06
2023-05-11T09:09:50.063Z,101223.53
2023-05-11T09:12:20.331Z,101222.69
2023-05-11T09:14:48.668Z,101225.38
2023-05-11T09:17:16.741Z,101223.53
2023-05-11T09:20:02.384Z,101227.06
2023-05-11T09:22:32.130Z,101171.13
2023-05-11T09:25:04.114Z,101221.84
2023-05-11T09:27:34.133Z,101232.56
2023-05-11T09:30:12.648Z,101217.59
2023-05-11T09:32:52.195Z,101199.94
2023-05-11T09:35:22.120Z,101243.28
2023-05-11T09:38:05.713Z,101199.06
2023-05-11T09:40:35.332Z,101160.03
2023-05-11T09:43:05.200Z,101119.03
2023-05-11T09:45:37.582Z,101232.56
2023-05-11T09:48:06.376Z,101160.41
2023-05-11T09:50:35.361Z,101234.25
2023-05-11T09:53:03.576Z,101233.66
2023-05-11T09:55:31.986Z,101220.00
2023-05-11T09:58:01.329Z,101240.47
2023-05-11T10:00:30.910Z,101242.16
2023-05-11T10:03:06.197Z,101087.63
2023-05-11T10:05:37.735Z,101147.38
2023-05-11T10:08:07.153Z,101236.81
2023-05-11T10:10:36.217Z,101094.91
2023-05-11T10:13:04.750Z,101175.97
2023-05-11T10:15:36.736Z,101224.88
2023-05-11T10:18:07.236Z,101245.84
2023-05-11T10:20:35.567Z,101245.84
2023-05-11T10:23:04.781Z,101156.53
2023-05-11T10:25:34.605Z,101153.09
2023-05-11T10:28:03.601Z,101245.84
2023-05-11T10:30:34.447Z,101244.13
2023-05-11T10:33:03.173Z,101242.28
2023-05-11T10:35:32.628Z,101244.13
2023-05-11T10:38:02.757Z,101245.84
2023-05-11T10:40:31.717Z,101241.47
2023-05-11T10:43:28.369Z,101243.28
2023-05-11T10:46:09.526Z,101254.09
2023-05-11T10:49:15.082Z,101257.53
2023-05-11T10:52:12.136Z,101217.13
2023-05-11T10:54:55.466Z,101255.81
2023-05-11T10:57:37.483Z,101249.75
2023-05-11T11:00:47.956Z,101254.84
2023-05-11T11:03:17.777Z,101245.13
2023-05-11T11:05:46.496Z,101254.00
2023-05-11T11:08:14.625Z,101167.94
2023-05-11T11:10:46.297Z,101251.31
2023-05-11T11:13:17.090Z,101254.84
2023-05-11T11:16:16.549Z,101251.69
2023-05-11T11:18:47.673Z,101226.09
2023-05-11T11:21:42.437Z,101258.47
2023-05-11T11:24:10.467Z,101263.00
2023-05-11T11:26:49.620Z,101264.84
2023-05-11T11:29:17.943Z,101263.84
2023-05-11T11:31:46.037Z,101274.56
2023-05-11T11:34:38.837Z,101263.84
2023-05-11T11:37:09.007Z,101276.53
2023-05-11T11:39:50.183Z,101269.19
2023-05-11T11:42:20.116Z,101212.50
2023-05-11T11:44:48.578Z,101274.56
2023-05-11T11:47:17.717Z,101274.56
2023-05-11T11:49:49.134Z,101276.28
2023-05-11T11:52:34.812Z,101275.44
2023-05-11T11:55:05.247Z,101281.66
2023-05-11T11:57:49.416Z,101283.34
2023-05-11T12:00:22.849Z,101285.16
2023-05-11T12:02:51.424Z,101276.53
2023-05-11T12:05:25.315Z,101201.78
2023-05-11T12:07:55.310Z,101306.47
2023-05-11T12:10:24.469Z,101275.31
2023-05-11T12:12:55.302Z,101290.41
2023-05-11T12:15:27.401Z,101292.13
2023-05-11T12:17:57.649Z,101283.09
2023-05-11T12:20:27.366Z,101282.47
2023-05-11T12:22:55.907Z,101288.47
2023-05-11T12:25:25.148Z,101285.03
2023-05-11T12:27:55.746Z,101205.78
2023-05-11T12:30:25.325Z,101289.69
2023-05-11T12:32:57.564Z,101284.22
2023-05-11T12:35:29.526Z,101293.81
2023-05-11T12:38:04.557Z,101265.44
2023-05-11T12:40:33.778Z,101295.75
2023-05-11T12:43:02.057Z,101290.41
2023-05-11T12:45:30.697Z,101292.94
2023-05-11T12:47:59.705Z,101291.25
2023-05-11T12:50:29.268Z,101291.25
2023-05-11T12:53:13.478Z,101198.13
2023-05-11T12:55:41.778Z,101285.03
2023-05-11T12:58:14.302Z,101298.44
2023-05-11T13:00:52.757Z,101285.03
2023-05-11T13:03:24.138Z,101291.25
2023-05-11T13:05:54.516Z,101312.81
2023-05-11T13:08:22.588Z,101292.13
2023-05-11T13:10:50.852Z,101290.41
2023-05-11T13:13:28.570Z,101285.03
2023-05-11T13:15:57.107Z,101137.72
2023-05-11T13:18:25.285Z,101207.16
2023-05-11T13:21:07.912Z,101286.75
2023-05-11T13:23:36.994Z,101286.75
2023-05-11T13:26:05.116Z,101284.09
2023-05-11T13:28:35.214Z,101288.47
2023-05-11T13:31:03.476Z,101133.56
2023-05-11T13:33:32.128Z,101287.59
2023-05-11T13:36:00.346Z,101195.19
2023-05-11T13:38:29.889Z,101274.34
2023-05-11T13:40:58.165Z,101289.44
2023-05-11T13:43:26.373Z,101291.38
2023-05-11T13:45:54.460Z,101209.31
2023-05-11T13:48:22.722Z,101286.75
2023-05-11T13:50:50.882Z,101290.28
2023-05-11T13:53:18.995Z,101215.41
2023-05-11T13:55:48.649Z,101285.28
2023-05-11T13:58:17.925Z,101292.13
2023-05-11T14:00:56.678Z,101255.84
2023-05-11T14:03:35.240Z,101293.81
2023-05-11T14:06:04.743Z,101263.75
2023-05-11T14:08:32.945Z,101284.22
2023-05-11T14:11:02.920Z,101288.47
2023-05-11T14:13:31.104Z,101212.38
2023-05-11T14:15:59.297Z,101283.09
2023-05-11T14:18:28.116Z,101287.59
2023-05-11T14:20:56.960Z,101288.69
2023-05-11T14:23:25.809Z,101263.13
2023-05-11T14:25:54.026Z,101166.00
2023-05-11T14:28:24.107Z,101295.50
2023-05-11T14:30:52.256Z,101294.69
2023-05-11T14:33:20.411Z,101295.50
2023-05-11T14:35:49.400Z,101290.16
2023-05-11T14:38:18.655Z,101221.38
2023-05-11T14:40:47.141Z,101184.47
2023-05-11T14:43:15.336Z,101296.38
2023-05-11T14:45:45.034Z,101297.25
2023-05-11T14:48:13.272Z,101295.50
2023-05-11T14:50:43.141Z,101295.50
2023-05-11T14:53:11.222Z,101300.88
2023-05-11T14:55:39.948Z,101295.50
2023-05-11T14:58:09.405Z,101295.50
2023-05-11T15:00:40.456Z,101294.31
2023-05-11T15:03:13.503Z,101253.41
2023-05-11T15:05:41.981Z,101311.59
2023-05-11T15:08:18.556Z,101304.41
2023-05-11T15:10:54.204Z,101305.28
2023-05-11T15:13:22.714Z,101243.63
2023-05-11T15:15:50.852Z,101302.59
2023-05-11T15:18:20.646Z,101313.31
2023-05-11T15:20:48.990Z,101300.88
2023-05-11T15:23:17.420Z,101313.31
2023-05-11T15:25:45.740Z,101318.69
2023-05-11T15:28:13.971Z,101321.34
2023-05-11T15:30:42.303Z,101316.94
2023-05-11T15:33:11.178Z,101316.94
2023-05-11T15:35:40.722Z,101312.06
2023-05-11T15:38:08.809Z,101327.66
2023-05-11T15:40:37.307Z,101325.97
2023-05-11T15:43:07.863Z,101300.16
2023-05-11T15:45:36.756Z,101324.03
2023-05-11T15:48:05.299Z,101326.72
2023-05-11T15:50:33.391Z,101325.84
2023-05-11T15:53:02.899Z,101318.69
2023-05-11T15:55:34.523Z,101160.56
2023-05-11T15:58:02.738Z,101326.84
2023-05-11T16:00:30.754Z,101331.34
2023-05-11T16:02:58.872Z,101330.47
2023-05-11T16:05:28.109Z,101336.69
2023-05-11T16:07:56.231Z,101341.06
2023-05-11T16:10:25.989Z,101237.56
2023-05-11T16:12:55.170Z,101349.09
2023-05-11T16:15:25.085Z,101328.16
2023-05-11T16:17:53.240Z,101350.84
2023-05-11T16:20:21.602Z,101344.38
2023-05-11T16:22:50.124Z,101347.91
2023-05-11T16:25:18.490Z,101357.66
2023-05-11T16:27:47.967Z,101345.25
2023-05-11T16:30:24.175Z,101345.97
2023-05-11T16:32:53.142Z,101355.09
2023-05-11T16:35:21.683Z,101352.41
2023-05-11T16:37:49.862Z,101356.06
2023-05-11T16:40:19.603Z,101361.31
2023-05-11T16:42:49.402Z,101361.31
2023-05-11T16:45:17.781Z,101334.84
2023-05-11T16:47:46.372Z,101361.44
2023-05-11T16:50:16.505Z,101361.31
2023-05-11T16:52:45.239Z,101335.47
2023-05-11T16:55:16.132Z,101227.91
2023-05-11T16:57:44.815Z,101364.94
2023-05-11T17:00:15.643Z,101373.72
2023-05-11T17:02:43.903Z,101365.81
2023-05-11T17:05:12.863Z,101303.06
2023-05-11T17:07:42.747Z,101372.03
2023-05-11T17:10:16.149Z,101381.88
2023-05-11T17:12:47.738Z,101304.75
2023-05-11T17:15:17.366Z,101375.66
2023-05-11T17:17:45.500Z,101382.75
2023-05-11T17:20:14.616Z,101381.88
2023-05-11T17:22:42.765Z,101382.00
2023-05-11T17:25:11.227Z,101375.66
2023-05-11T17:27:39.538Z,101379.34
2023-05-11T17:30:10.599Z,101394.44
2023-05-11T17:32:40.265Z,101391.75
2023-05-11T17:35:10.631Z,101395.41
2023-05-11T17:37:38.858Z,101395.41
2023-05-11T17:40:09.443Z,101406.38
2023-05-11T17:42:37.566Z,101376.91
2023-05-11T17:45:06.257Z,101394.53
2023-05-11T17:47:34.748Z,101399.91
2023-05-11T17:50:04.771Z,101386.28
2023-05-11T17:52:36.565Z,101397.34
2023-05-11T17:55:04.866Z,101404.44
2023-05-11T17:57:33.368Z,101398.44
2023-05-11T18:00:01.436Z,101408.06
2023-05-11T18:02:29.620Z,101397.34
2023-05-11T18:04:58.051Z,101407.22
2023-05-11T18:07:29.360Z,101408.06
2023-05-11T18:09:58.017Z,101416.97
2023-05-11T18:12:26.518Z,101415.38
2023-05-11T18:14:54.947Z,101421.59
2023-05-11T18:17:23.570Z,101387.34
2023-05-11T18:19:51.676Z,101421.69
2023-05-11T18:22:20.217Z,101424.16
2023-05-11T18:24:49.963Z,101426.81
2023-05-11T18:27:18.650Z,101283.41
2023-05-11T18:29:46.744Z,101441.09
2023-05-11T18:32:15.150Z,101296.75
2023-05-11T18:34:43.486Z,101438.28
2023-05-11T18:37:11.536Z,101443.66
2023-05-11T18:39:39.998Z,101450.72
2023-05-11T18:42:09.743Z,101448.03
2023-05-11T18:44:37.939Z,101355.34
2023-05-11T18:47:06.861Z,101441.31
2023-05-11T18:49:35.580Z,101454.38
2023-05-11T18:52:09.419Z,101455.31
2023-05-11T18:54:37.675Z,101465.09
2023-05-11T18:57:07.968Z,101470.44
2023-05-11T18:59:37.808Z,101459.97
2023-05-11T19:02:06.393Z,101497.50
2023-05-11T19:04:34.791Z,101482.97
2023-05-11T19:07:04.625Z,101488.22
2023-05-11T19:09:32.813Z,101482.88
2023-05-11T19:12:01.091Z,101493.59
2023-05-11T19:14:29.703Z,101498.94
2023-05-11T19:16:59.548Z,101499.94
2023-05-11T19:19:27.822Z,101502.59
2023-05-11T19:21:56.331Z,101485.53
2023-05-11T19:24:24.515Z,101515.50
2023-05-11T19:27:05.908Z,101509.19
2023-05-11T19:29:35.530Z,101454.47
2023-05-11T19:32:08.155Z,101538.44
2023-05-11T19:34:36.368Z,101450.06
2023-05-11T19:37:04.564Z,101522.06
2023-05-11T19:39:33.192Z,101538.44
2023-05-11T19:42:01.480Z,101471.78
2023-05-11T19:44:33.083Z,101428.06
2023-05-11T19:47:01.515Z,101453.69
2023-05-11T19:49:32.560Z,101475.91
2023-05-11T19:52:00.784Z,101554.50
2023-05-11T19:54:29.061Z,101545.97
2023-05-11T19:56:59.930Z,101551.94
2023-05-11T19:59:33.165Z,101551.31
2023-05-11T20:02:06.727Z,101563.50
2023-05-11T20:04:36.499Z,101567.16
2023-05-11T20:07:06.209Z,101572.53
2023-05-11T20:09:35.046Z,101469.16
2023-05-11T20:12:03.637Z,101579.59
2023-05-11T20:14:35.857Z,101574.22
2023-05-11T20:17:07.484Z,101576.19
2023-05-11T20:19:43.546Z,101604.69
2023-05-11T20:22:11.731Z,101579.81
2023-05-11T20:24:45.687Z,101517.19
2023-05-11T20:27:13.874Z,101488.97
2023-05-11T20:29:42.221Z,101572.13
2023-05-11T20:32:10.793Z,101585.16
2023-05-11T20:34:40.453Z,101588.59
2023-05-11T20:37:10.156Z,101588.59
2023-05-11T20:39:38.278Z,101592.25
2023-05-11T20:42:07.125Z,101520.91
2023-05-11T20:44:43.725Z,101594.41
2023-05-11T20:47:12.026Z,101603.94
2023-05-11T20:49:41.589Z,101610.03
2023-05-11T20:52:10.233Z,101610.03
2023-05-11T20:54:38.369Z,101605.13
2023-05-11T20:57:08.361Z,101619.78
2023-05-11T21:02:09.337Z,101607.31
2023-05-11T21:04:38.027Z,101509.63
2023-05-11T21:07:07.967Z,101621.63
2023-05-11T21:09:36.808Z,101631.47
2023-05-11T21:12:05.127Z,101629.78
2023-05-11T21:14:33.360Z,101628.06
2023-05-11T21:17:02.010Z,101621.00
2023-05-11T21:19:30.114Z,101635.97
2023-05-11T21:21:58.217Z,101640.50
2023-05-11T21:24:27.706Z,101631.72
2023-05-11T21:26:56.093Z,101631.94
2023-05-11T21:29:24.257Z,101548.59
2023-05-11T21:31:53.140Z,101648.44
2023-05-11T21:34:21.490Z,101646.69
2023-05-11T21:36:50.846Z,101579.38
2023-05-11T21:39:21.774Z,101650.25
2023-05-11T21:41:51.380Z,101652.94
2023-05-11T21:44:19.551Z,101651.94
2023-05-11T21:46:48.948Z,101620.44
2023-05-11T21:49:17.455Z,101570.56
2023-05-11T21:51:45.630Z,101655.59
2023-05-11T21:54:14.224Z,101649.25
2023-05-11T21:56:42.335Z,101652.94
2023-05-11T21:59:11.975Z,101661.84
2023-05-11T22:01:40.096Z,101664.41
2023-05-11T22:04:09.163Z,101672.44
2023-05-11T22:06:37.588Z,101669.75
2023-05-11T22:09:06.282Z,101670.69
2023-05-11T22:11:35.519Z,101681.41
2023-05-11T22:14:03.624Z,101611.31
2023-05-11T22:16:33.233Z,101693.88
2023-05-11T22:19:01.709Z,101697.38
2023-05-11T22:21:29.888Z,101691.31
2023-05-11T22:23:57.992Z,101697.50
2023-05-11T22:26:26.451Z,101704.59
2023-05-11T22:28:54.588Z,101703.84
2023-05-11T22:31:22.738Z,101702.03
2023-05-11T22:33:52.351Z,101700.94
2023-05-11T22:36:20.492Z,101703.63
2023-05-11T22:38:48.603Z,101711.66
2023-05-11T22:41:16.765Z,101706.31
2023-05-11T22:43:44.895Z,101708.97
2023-05-11T22:46:12.949Z,101709.97
2023-05-11T22:48:41.323Z,101622.53
2023-05-11T22:51:10.781Z,101711.66
2023-05-11T22:53:38.884Z,101640.84
2023-05-11T22:56:09.210Z,101710.19
2023-05-11T22:58:37.254Z,101701.00
2023-05-11T23:01:05.457Z,101722.38
2023-05-11T23:03:33.534Z,101726.03
2023-05-11T23:06:02.153Z,101722.50
2023-05-11T23:08:31.586Z,101723.25
2023-05-11T23:10:59.647Z,101719.59
2023-05-11T23:13:28.212Z,101724.09
2023-05-11T23:15:56.219Z,101725.19
2023-05-11T23:18:24.392Z,101732.13
2023-05-11T23:20:57.009Z,101731.19
2023-05-11T23:23:25.224Z,101731.19
2023-05-11T23:25:55.037Z,101732.13
2023-05-11T23:28:24.134Z,101733.09
2023-05-11T23:30:52.178Z,101740.16
2023-05-11T23:33:22.280Z,101743.81
2023-05-11T23:35:50.400Z,101740.16
2023-05-11T23:38:18.634Z,101738.47
2023-05-11T23:40:46.762Z,101738.47
2023-05-11T23:43:16.341Z,101743.81
2023-05-11T23:45:44.379Z,101732.06
2023-05-11T23:48:12.582Z,101750.06
2023-05-11T23:50:40.656Z,101744.69
2023-05-11T23:53:08.658Z,101736.97
2023-05-11T23:55:36.700Z,101728.63
2023-05-11T23:58:04.728Z,101740.38
